createdAt,value
2022-08-05T00:02:50.570Z,24.39
2022-08-05T00:06:06.426Z,24.48
2022-08-05T00:09:19.449Z,24.38
2022-08-05T00:12:22.797Z,24.37
2022-08-05T00:15:55.149Z,24.29
2022-08-05T00:18:49.766Z,24.35
2022-08-05T00:21:54.057Z,24.35
2022-08-05T00:24:57.059Z,24.30
2022-08-05T00:27:59.953Z,24.28
2022-08-05T00:31:04.735Z,24.26
2022-08-05T00:34:54.425Z,24.29
2022-08-05T00:37:50.650Z,24.21
2022-08-05T00:40:59.089Z,24.11
2022-08-05T00:44:03.592Z,24.08
2022-08-05T00:47:06.287Z,23.98
2022-08-05T00:50:10.054Z,24.02
2022-08-05T00:54:00.707Z,24.03
2022-08-05T00:56:36.228Z,23.92
2022-08-05T00:59:44.414Z,23.97
2022-08-05T01:02:48.248Z,23.80
2022-08-05T01:05:54.569Z,23.89
2022-08-05T01:08:57.860Z,23.88
2022-08-05T01:12:17.896Z,23.77
2022-08-05T01:15:36.340Z,23.58
2022-08-05T01:18:48.049Z,23.51
2022-08-05T01:22:03.426Z,23.46
2022-08-05T01:25:39.729Z,23.46
2022-08-05T01:28:49.769Z,23.43
2022-08-05T01:31:59.182Z,23.36
2022-08-05T01:35:11.365Z,23.43
2022-08-05T01:38:36.798Z,23.36
2022-08-05T01:41:44.385Z,23.40
2022-08-05T01:44:54.154Z,23.21
2022-08-05T01:48:00.897Z,23.23
2022-08-05T01:51:11.915Z,23.21
2022-08-05T01:54:18.004Z,23.20
2022-08-05T01:58:10.983Z,22.99
2022-08-05T02:00:52.155Z,22.89
2022-08-05T02:03:57.026Z,23.03
2022-08-05T02:07:00.480Z,22.93
2022-08-05T02:10:08.009Z,22.89
2022-08-05T02:13:17.832Z,22.79
2022-08-05T02:16:39.590Z,22.89
2022-08-05T02:19:48.428Z,22.77
2022-08-05T02:23:02.953Z,22.67
2022-08-05T02:26:09.558Z,22.65
2022-08-05T02:29:24.281Z,22.52
2022-08-05T02:32:46.845Z,22.54
2022-08-05T02:35:58.908Z,22.55
2022-08-05T02:39:08.783Z,22.45
2022-08-05T02:42:12.125Z,22.48
2022-08-05T02:45:52.239Z,22.42
2022-08-05T02:48:55.284Z,22.46
2022-08-05T02:52:03.966Z,22.25
2022-08-05T02:55:10.726Z,22.11
2022-08-05T02:58:17.598Z,22.10
2022-08-05T03:01:27.863Z,22.13
2022-08-05T03:04:31.005Z,22.05
2022-08-05T03:08:01.154Z,22.21
2022-08-05T03:11:53.554Z,22.21
2022-08-05T03:14:20.764Z,22.05
2022-08-05T03:17:23.920Z,22.10
2022-08-05T03:20:27.963Z,22.08
2022-08-05T03:23:31.866Z,22.21
2022-08-05T03:26:38.207Z,22.18
2022-08-05T03:29:45.535Z,22.12
2022-08-05T03:33:06.250Z,22.23
2022-08-05T03:36:11.924Z,22.21
2022-08-05T03:39:20.136Z,22.12
2022-08-05T03:42:32.901Z,22.01
2022-08-05T03:45:57.514Z,21.86
2022-08-05T03:49:02.212Z,21.79
2022-08-05T03:52:48.603Z,21.84
2022-08-05T03:56:09.364Z,21.94
2022-08-05T03:59:07.634Z,22.09
2022-08-05T04:02:17.281Z,22.14
2022-08-05T04:05:23.107Z,22.29
2022-08-05T04:08:36.499Z,22.71
2022-08-05T04:11:50.853Z,22.99
2022-08-05T04:14:57.731Z,23.21
2022-08-05T04:18:09.898Z,23.22
2022-08-05T04:22:04.953Z,23.33
2022-08-05T04:24:43.939Z,23.43
2022-08-05T04:27:58.206Z,23.62
2022-08-05T04:31:02.675Z,23.73
2022-08-05T04:34:31.189Z,23.74
2022-08-05T04:38:02.070Z,23.89
2022-08-05T04:40:56.766Z,24.25
2022-08-05T04:44:02.394Z,24.72
2022-08-05T04:47:17.007Z,24.82
2022-08-05T04:50:37.353Z,25.15
2022-08-05T04:53:45.792Z,25.07
2022-08-05T04:56:49.554Z,25.44
2022-08-05T04:59:52.063Z,25.68
2022-08-05T05:02:57.313Z,25.42
2022-08-05T05:06:40.163Z,26.05
2022-08-05T05:09:26.132Z,25.93
2022-08-05T05:12:29.247Z,26.26
2022-08-05T05:15:56.953Z,26.82
2022-08-05T05:19:17.730Z,26.52
2022-08-05T05:22:24.300Z,26.82
2022-08-05T05:25:32.572Z,27.32
2022-08-05T05:28:45.150Z,27.75
2022-08-05T05:31:48.269Z,28.11
2022-08-05T05:34:52.489Z,28.44
2022-08-05T05:38:01.571Z,28.79
2022-08-05T05:41:07.672Z,29.29
2022-08-05T05:44:35.715Z,29.17
2022-08-05T05:48:06.592Z,28.82
2022-08-05T05:50:58.728Z,29.63
2022-08-05T05:54:18.048Z,30.13
2022-08-05T05:57:22.434Z,30.64
2022-08-05T06:00:27.708Z,30.76
2022-08-05T06:04:00.511Z,30.30
2022-08-05T06:07:01.550Z,31.08
2022-08-05T06:10:10.200Z,31.47
2022-08-05T06:13:13.604Z,31.07
2022-08-05T06:16:29.109Z,29.45
2022-08-05T06:19:35.699Z,31.56
2022-08-05T06:22:40.442Z,32.07
2022-08-05T06:26:12.530Z,31.79
2022-08-05T06:29:25.104Z,31.96
2022-08-05T06:32:31.975Z,32.25
2022-08-05T06:36:09.339Z,32.25
2022-08-05T06:38:57.731Z,31.86
2022-08-05T06:42:04.105Z,30.93
2022-08-05T06:45:08.567Z,32.09
2022-08-05T06:48:55.389Z,33.21
2022-08-05T06:51:35.196Z,33.54
2022-08-05T06:54:43.620Z,33.71
2022-08-05T06:58:03.751Z,32.09
2022-08-05T07:01:14.313Z,33.23
2022-08-05T07:04:23.846Z,33.23
2022-08-05T07:07:43.327Z,33.35
2022-08-05T07:10:52.470Z,34.24
2022-08-05T07:14:15.529Z,33.99
2022-08-05T07:18:01.974Z,35.09
2022-08-05T07:20:46.527Z,33.57
2022-08-05T07:23:50.127Z,33.75
2022-08-05T07:26:55.331Z,35.66
2022-08-05T07:30:25.703Z,35.24
2022-08-05T07:33:35.209Z,35.26
2022-08-05T07:36:40.146Z,34.95
2022-08-05T07:40:04.399Z,34.75
2022-08-05T07:43:20.301Z,35.39
2022-08-05T07:46:26.410Z,34.67
2022-08-05T07:49:29.176Z,35.08
2022-08-05T07:52:32.203Z,35.86
2022-08-05T07:55:44.208Z,36.77
2022-08-05T07:58:59.250Z,36.05
2022-08-05T08:02:03.170Z,35.46
2022-08-05T08:05:06.830Z,34.72
2022-08-05T08:08:23.429Z,34.92
2022-08-05T08:11:53.478Z,35.39
2022-08-05T08:14:52.414Z,35.12
2022-08-05T08:17:55.545Z,35.72
2022-08-05T08:21:09.693Z,37.03
2022-08-05T08:24:21.067Z,36.58
2022-08-05T08:27:47.301Z,36.56
2022-08-05T08:30:51.046Z,36.45
2022-08-05T08:33:53.784Z,36.12
2022-08-05T08:37:01.717Z,35.77
2022-08-05T08:40:08.200Z,36.28
2022-08-05T08:45:20.442Z,36.28
2022-08-05T08:46:37.345Z,35.98
2022-08-05T08:50:22.901Z,38.00
2022-08-05T08:53:12.580Z,37.05
2022-08-05T08:56:17.369Z,37.82
2022-08-05T08:59:21.285Z,37.48
2022-08-05T09:02:26.765Z,36.50
2022-08-05T09:05:38.378Z,37.86
2022-08-05T09:08:53.307Z,37.46
2022-08-05T09:11:59.338Z,37.84
2022-08-05T09:15:10.620Z,36.71
2022-08-05T09:18:15.921Z,36.57
2022-08-05T09:22:23.040Z,37.10
2022-08-05T09:24:58.725Z,37.14
2022-08-05T09:28:13.040Z,38.24
2022-08-05T09:31:44.159Z,36.94
2022-08-05T09:34:55.048Z,36.82
2022-08-05T09:38:12.391Z,37.54
2022-08-05T09:41:21.010Z,36.43
2022-08-05T09:44:44.688Z,37.01
2022-08-05T09:47:55.827Z,37.61
2022-08-05T09:51:14.924Z,37.09
2022-08-05T09:54:32.683Z,37.07
2022-08-05T09:57:44.837Z,36.71
2022-08-05T10:01:14.833Z,37.20
2022-08-05T10:04:18.743Z,37.83
2022-08-05T10:08:35.030Z,38.32
2022-08-05T10:11:35.332Z,39.21
2022-08-05T10:14:38.026Z,39.81
2022-08-05T10:17:54.486Z,39.92
2022-08-05T10:21:06.110Z,37.75
2022-08-05T10:24:15.201Z,39.16
2022-08-05T10:27:18.563Z,38.22
2022-08-05T10:31:21.013Z,37.36
2022-08-05T10:33:54.463Z,37.02
2022-08-05T10:36:58.153Z,37.79
2022-08-05T10:40:17.786Z,37.82
2022-08-05T10:43:45.896Z,38.60
2022-08-05T10:46:56.544Z,37.85
2022-08-05T10:50:32.342Z,39.09
2022-08-05T10:53:45.116Z,37.30
2022-08-05T10:56:52.834Z,38.01
2022-08-05T11:00:18.241Z,39.15
2022-08-05T11:03:27.039Z,37.97
2022-08-05T11:06:31.333Z,38.82
2022-08-05T11:09:51.518Z,37.84
2022-08-05T11:13:07.538Z,39.15
2022-08-05T11:16:23.199Z,38.29
2022-08-05T11:20:16.927Z,38.96
2022-08-05T11:24:04.419Z,38.16
2022-08-05T11:27:50.925Z,38.48
2022-08-05T11:31:06.811Z,37.72
2022-08-05T11:34:14.721Z,37.98
2022-08-05T11:38:28.305Z,38.20
2022-08-05T11:41:35.021Z,38.66
2022-08-05T11:44:53.345Z,38.84
2022-08-05T11:47:58.806Z,38.30
2022-08-05T11:51:02.566Z,37.16
2022-08-05T11:54:06.788Z,37.03
2022-08-05T11:57:25.391Z,37.37
2022-08-05T12:00:30.583Z,38.29
2022-08-05T12:03:56.064Z,38.94
2022-08-05T12:07:02.124Z,37.01
2022-08-05T12:10:11.715Z,36.32
2022-08-05T12:13:47.642Z,36.98
2022-08-05T12:16:45.479Z,36.92
2022-08-05T12:20:17.035Z,35.93
2022-08-05T12:23:15.923Z,36.15
2022-08-05T12:26:18.477Z,35.01
2022-08-05T12:29:26.777Z,35.22
2022-08-05T12:32:32.286Z,34.97
2022-08-05T12:35:37.250Z,35.33
2022-08-05T12:38:43.150Z,34.94
2022-08-05T12:41:46.144Z,35.10
2022-08-05T12:44:50.550Z,35.32
2022-08-05T12:48:01.528Z,35.05
2022-08-05T12:52:11.235Z,35.28
2022-08-05T12:54:46.289Z,35.56
2022-08-05T12:58:49.788Z,35.39
2022-08-05T13:02:02.361Z,34.94
2022-08-05T13:04:52.547Z,35.29
2022-08-05T13:07:59.686Z,35.57
2022-08-05T13:11:04.337Z,35.85
2022-08-05T13:14:36.341Z,35.60
2022-08-05T13:17:41.311Z,35.25
2022-08-05T13:20:45.794Z,34.97
2022-08-05T13:23:50.652Z,34.95
2022-08-05T13:26:54.088Z,34.88
2022-08-05T13:30:32.526Z,34.94
2022-08-05T13:34:24.127Z,34.78
2022-08-05T13:36:43.883Z,34.92
2022-08-05T13:40:16.107Z,35.05
2022-08-05T13:43:13.847Z,35.36
2022-08-05T13:46:50.953Z,35.52
2022-08-05T13:49:49.140Z,34.77
2022-08-05T13:52:52.143Z,34.68
2022-08-05T13:55:57.642Z,34.79
2022-08-05T13:59:06.037Z,34.84
2022-08-05T14:02:26.554Z,35.17
2022-08-05T14:06:24.406Z,35.01
2022-08-05T14:08:52.276Z,35.07
2022-08-05T14:12:04.028Z,34.99
2022-08-05T14:16:04.794Z,34.81
2022-08-05T14:18:45.149Z,34.91
2022-08-05T14:22:10.278Z,34.85
2022-08-05T14:25:19.173Z,35.01
2022-08-05T14:28:26.917Z,34.88
2022-08-05T14:32:03.726Z,34.85
2022-08-05T14:34:53.967Z,34.62
2022-08-05T14:37:59.621Z,34.22
2022-08-05T14:41:07.495Z,34.18
2022-08-05T14:44:20.353Z,34.39
2022-08-05T14:48:05.767Z,34.52
2022-08-05T14:50:47.767Z,34.48
2022-08-05T14:54:26.903Z,34.39
2022-08-05T14:57:15.533Z,34.70
2022-08-05T15:00:21.457Z,34.98
2022-08-05T15:03:33.301Z,34.83
2022-08-05T15:06:37.035Z,34.72
2022-08-05T15:09:52.154Z,34.81
2022-08-05T15:13:03.677Z,34.85
2022-08-05T15:16:07.646Z,34.62
2022-08-05T15:19:23.931Z,34.56
2022-08-05T15:22:28.172Z,34.52
2022-08-05T15:25:41.192Z,34.46
2022-08-05T15:28:56.070Z,34.66
2022-08-05T15:32:02.309Z,34.67
2022-08-05T15:35:10.570Z,34.64
2022-08-05T15:38:35.374Z,34.62
2022-08-05T15:41:58.268Z,34.69
2022-08-05T15:45:02.042Z,34.57
2022-08-05T15:48:05.587Z,34.53
2022-08-05T15:51:09.527Z,34.23
2022-08-05T15:54:15.278Z,34.28
2022-08-05T15:57:19.765Z,34.39
2022-08-05T16:00:26.493Z,34.39
2022-08-05T16:03:50.291Z,34.26
2022-08-05T16:06:56.976Z,34.29
2022-08-05T16:10:01.655Z,34.25
2022-08-05T16:13:05.529Z,34.32
2022-08-05T16:16:10.786Z,34.26
2022-08-05T16:19:25.589Z,34.18
2022-08-05T16:22:38.357Z,34.27
2022-08-05T16:25:43.276Z,34.10
2022-08-05T16:28:49.577Z,34.04
2022-08-05T16:31:56.993Z,34.04
2022-08-05T16:35:00.591Z,34.00
2022-08-05T16:38:15.324Z,33.96
2022-08-05T16:42:15.214Z,33.92
2022-08-05T16:44:54.393Z,33.91
2022-08-05T16:48:03.026Z,33.89
2022-08-05T16:51:09.927Z,33.83
2022-08-05T16:54:17.163Z,33.86
2022-08-05T16:57:30.163Z,33.86
2022-08-05T17:00:49.632Z,33.83
2022-08-05T17:03:52.572Z,33.72
2022-08-05T17:07:00.884Z,33.64
2022-08-05T17:10:11.060Z,33.69
2022-08-05T17:13:16.807Z,33.72
2022-08-05T17:16:33.128Z,33.61
2022-08-05T17:19:36.859Z,33.56
2022-08-05T17:22:39.869Z,33.50
2022-08-05T17:25:45.820Z,33.45
2022-08-05T17:28:53.819Z,33.36
2022-08-05T17:31:58.985Z,33.33
2022-08-05T17:35:02.147Z,33.29
2022-08-05T17:38:13.414Z,33.27
2022-08-05T17:42:19.102Z,33.20
2022-08-05T17:44:50.458Z,33.13
2022-08-05T17:47:56.055Z,33.08
2022-08-05T17:50:59.912Z,32.88
2022-08-05T17:54:04.770Z,32.76
2022-08-05T17:57:11.904Z,32.67
2022-08-05T18:00:16.243Z,32.60
2022-08-05T18:03:56.296Z,32.48
2022-08-05T18:06:42.844Z,32.44
2022-08-05T18:10:00.313Z,32.26
2022-08-05T18:13:15.366Z,32.13
2022-08-05T18:16:22.201Z,32.14
2022-08-05T18:19:26.071Z,32.03
2022-08-05T18:22:36.275Z,31.98
2022-08-05T18:25:57.794Z,32.06
2022-08-05T18:29:02.850Z,32.01
2022-08-05T18:32:07.617Z,31.99
2022-08-05T18:35:17.032Z,31.96
2022-08-05T18:38:26.462Z,31.93
2022-08-05T18:41:55.680Z,31.80
2022-08-05T18:44:56.540Z,31.62
2022-08-05T18:47:59.557Z,31.59
2022-08-05T18:52:04.446Z,31.59
2022-08-05T18:54:48.717Z,31.53
2022-08-05T18:58:03.746Z,31.53
2022-08-05T19:01:06.871Z,31.46
2022-08-05T19:04:23.924Z,31.38
2022-08-05T19:07:29.694Z,31.30
2022-08-05T19:10:45.266Z,31.32
2022-08-05T19:14:00.999Z,31.23
2022-08-05T19:17:06.386Z,31.20
2022-08-05T19:20:15.083Z,31.04
2022-08-05T19:24:04.434Z,30.89
2022-08-05T19:26:54.070Z,30.78
2022-08-05T19:29:58.617Z,30.66
2022-08-05T19:33:01.632Z,30.53
2022-08-05T19:36:08.951Z,30.37
2022-08-05T19:39:12.205Z,30.32
2022-08-05T19:42:34.903Z,29.97
2022-08-05T19:45:40.347Z,30.06
2022-08-05T19:49:00.874Z,29.74
2022-08-05T19:52:30.222Z,29.63
2022-08-05T19:56:13.768Z,29.44
2022-08-05T19:58:54.514Z,29.40
2022-08-05T20:01:57.186Z,29.34
2022-08-05T20:05:01.088Z,29.54
2022-08-05T20:08:07.532Z,29.60
2022-08-05T20:11:12.165Z,29.58
2022-08-05T20:14:26.600Z,29.56
2022-08-05T20:17:32.449Z,29.44
2022-08-05T20:20:43.694Z,29.23
2022-08-05T20:23:51.221Z,29.05
2022-08-05T20:26:55.895Z,28.95
2022-08-05T20:30:00.167Z,28.96
2022-08-05T20:33:03.077Z,28.76
2022-08-05T20:36:06.345Z,28.82
2022-08-05T20:39:13.823Z,28.69
2022-08-05T20:42:21.742Z,28.68
2022-08-05T20:45:24.562Z,28.75
2022-08-05T20:48:51.296Z,28.72
2022-08-05T20:51:55.362Z,28.54
2022-08-05T20:55:54.821Z,28.53
2022-08-05T20:58:29.608Z,28.47
2022-08-05T21:01:37.583Z,28.50
2022-08-05T21:04:41.560Z,28.25
2022-08-05T21:07:51.927Z,28.24
2022-08-05T21:10:58.571Z,28.19
2022-08-05T21:14:01.755Z,28.24
2022-08-05T21:17:05.198Z,28.18
2022-08-05T21:20:10.483Z,28.07
2022-08-05T21:23:14.118Z,28.05
2022-08-05T21:26:17.068Z,28.12
2022-08-05T21:29:20.394Z,28.02
2022-08-05T21:32:29.285Z,27.89
2022-08-05T21:35:55.364Z,27.85
2022-08-05T21:38:55.634Z,27.73
2022-08-05T21:42:01.525Z,27.67
2022-08-05T21:45:06.291Z,27.66
2022-08-05T21:48:13.831Z,27.49
2022-08-05T21:52:15.445Z,27.51
2022-08-05T21:54:41.472Z,27.57
2022-08-05T21:57:44.612Z,27.50
2022-08-05T22:00:51.496Z,27.41
2022-08-05T22:03:54.796Z,27.32
2022-08-05T22:06:58.719Z,27.31
2022-08-05T22:10:01.917Z,27.31
2022-08-05T22:13:09.259Z,27.22
2022-08-05T22:16:41.657Z,27.01
2022-08-05T22:19:57.141Z,26.92
2022-08-05T22:24:01.969Z,26.85
2022-08-05T22:27:10.964Z,26.86
2022-08-05T22:30:19.441Z,26.50
2022-08-05T22:33:55.506Z,26.44
2022-08-05T22:36:48.190Z,26.68
2022-08-05T22:39:51.421Z,26.44
2022-08-05T22:42:58.513Z,26.40
2022-08-05T22:46:05.830Z,26.25
2022-08-05T22:50:17.673Z,25.97
2022-08-05T22:52:36.029Z,26.00
2022-08-05T22:55:57.267Z,25.77
2022-08-05T22:59:04.109Z,26.62
2022-08-05T23:02:28.867Z,25.87
2022-08-05T23:05:36.157Z,26.17
2022-08-05T23:08:39.331Z,25.98
2022-08-05T23:11:46.549Z,25.81
2022-08-05T23:14:52.305Z,25.92
2022-08-05T23:18:00.997Z,25.85
2022-08-05T23:21:05.783Z,25.88
2022-08-05T23:24:12.844Z,25.85
2022-08-05T23:27:16.666Z,25.76
2022-08-05T23:30:27.135Z,25.65
2022-08-05T23:34:05.471Z,25.65
2022-08-05T23:36:57.270Z,25.60
2022-08-05T23:40:02.285Z,25.55
2022-08-05T23:43:24.410Z,25.55
2022-08-05T23:46:28.897Z,25.58
2022-08-05T23:49:35.936Z,25.67
2022-08-05T23:52:49.486Z,25.69
2022-08-05T23:55:53.006Z,25.80
2022-08-05T23:58:58.721Z,25.68
